This is the latest recevied weather packets stored in our database for station/object AD6NH. If no packets are shown the sender has not sent any weather packets the latest 10 day(s).
| Time | Temp. | Humidity | Pressure | Rain* | Wind** | Luminosity | Snow |
|---|---|---|---|---|---|---|---|
| 1777759022 | 21.67° C | 63% | 1012.9 hPa | 0 mm | - | - | - |
| 1777758422 | 21.67° C | 62% | 1013 hPa | 0 mm | - | - | - |
| 1777757823 | 22.22° C | 60% | 1013.3 hPa | 0 mm | - | - | - |
| 1777757223 | 22.22° C | 61% | 1013.4 hPa | 0 mm | - | - | - |
| 1777756623 | 23.33° C | 58% | 1013.4 hPa | 0 mm | - | - | - |
| 1777756022 | 22.78° C | 61% | 1013.3 hPa | 0 mm | - | - | - |
| 1777755422 | 22.22° C | 61% | 1013.5 hPa | 0 mm | - | - | - |
| 1777754822 | 22.78° C | 60% | 1013.4 hPa | 0 mm | - | - | - |
| 1777754222 | 22.78° C | 59% | 1013.5 hPa | 0 mm | - | - | - |
| 1777753622 | 22.22° C | 61% | 1013.8 hPa | 0 mm | - | - | - |
| 1777753022 | 22.22° C | 63% | 1013.9 hPa | 0 mm | - | - | - |
| 1777752422 | 21.11° C | 65% | 1013.9 hPa | 0 mm | - | - | - |
| 1777751823 | 21.11° C | 65% | 1014.1 hPa | 0 mm | - | - | - |
| 1777751222 | 20° C | 68% | 1014.3 hPa | 0 mm | - | - | - |
| 1777750623 | 20.56° C | 67% | 1014.4 hPa | 0 mm | - | - | - |
| 1777750022 | 19.44° C | 71% | 1014.7 hPa | 0 mm | - | - | - |
| 1777749422 | 19.44° C | 72% | 1014.8 hPa | 0 mm | - | - | - |
| 1777748822 | 18.89° C | 72% | 1014.9 hPa | 0 mm | - | - | - |
| 1777748223 | 18.89° C | 74% | 1015 hPa | 0 mm | - | - | - |
| 1777747622 | 18.89° C | 73% | 1015 hPa | 0 mm | - | - | - |
| 1777747023 | 18.33° C | 76% | 1015 hPa | 0 mm | - | - | - |
| 1777746423 | 18.33° C | 77% | 1014.9 hPa | 0 mm | - | - | - |
| 1777745823 | 18.33° C | 77% | 1015 hPa | 0 mm | - | - | - |
| 1777745222 | 17.78° C | 78% | 1015.3 hPa | 0 mm | - | - | - |
| 1777744622 | 17.22° C | 79% | 1015.5 hPa | 0 mm | - | - | - |
* Rain latest hour (hover to see other rain measurements)
** Current wind speed in m/s (hover to see current wind gust speed)